Time,TemperatureF,DewpointF,PressureIn,WindDirection,WindDirectionDegrees,WindSpeedMPH,WindSpeedGustMPH,Humidity,HourlyPrecipIn,Conditions,Clouds,dailyrainin,SolarRadiationWatts/m^2,SoftwareType,DateUTC
2013-04-30 00:00:00,35.8,22.0,29.55,West,263,7.0,8.0,57,0.00,,,0.13,0,Wunderground v.1.15,2013-04-30 06:00:00,
2013-04-30 00:05:00,35.7,21.5,29.55,WNW,289,8.0,10.0,56,0.00,,,0.00,0,Wunderground v.1.15,2013-04-30 06:05:00,
2013-04-30 00:15:00,35.7,21.5,29.56,WNW,289,9.0,11.0,56,0.00,,,0.00,0,Wunderground v.1.15,2013-04-30 06:15:00,
2013-04-30 00:20:00,35.5,21.3,29.55,West,267,11.0,11.0,56,0.00,,,0.00,0,Wunderground v.1.15,2013-04-30 06:20:00,
2013-04-30 00:25:00,35.4,22.5,29.55,West,272,12.0,12.0,59,0.00,,,0.00,0,Wunderground v.1.15,2013-04-30 06:25:00,
2013-04-30 00:30:00,35.4,22.1,29.56,West,270,9.0,13.0,58,0.00,,,0.00,0,Wunderground v.1.15,2013-04-30 06:30:00,
2013-04-30 00:35:00,35.4,21.7,29.56,NW,305,7.0,13.0,57,0.00,,,0.00,0,Wunderground v.1.15,2013-04-30 06:35:00,
2013-04-30 00:40:00,35.4,21.2,29.56,West,278,9.0,11.0,56,0.00,,,0.00,0,Wunderground v.1.15,2013-04-30 06:40:00,
2013-04-30 00:50:00,35.1,22.2,29.56,WNW,283,10.0,10.0,59,0.00,,,0.00,0,Wunderground v.1.15,2013-04-30 06:50:00,
2013-04-30 00:55:00,34.8,21.5,29.56,WNW,284,11.0,11.0,58,0.00,,,0.00,0,Wunderground v.1.15,2013-04-30 06:55:00,
2013-04-30 01:00:00,34.6,22.1,29.56,NW,311,12.0,14.0,60,0.00,,,0.00,0,Wunderground v.1.15,2013-04-30 07:00:00,
2013-04-30 01:10:00,34.4,21.9,29.57,West,270,9.0,11.0,60,0.00,,,0.00,0,Wunderground v.1.15,2013-04-30 07:10:00,
2013-04-30 01:20:00,34.3,21.4,29.57,West,276,7.0,7.0,59,0.00,,,0.00,0,Wunderground v.1.15,2013-04-30 07:20:00,
2013-04-30 01:30:00,34.3,21.8,29.58,NW,314,4.0,4.0,60,0.00,,,0.00,0,Wunderground v.1.15,2013-04-30 07:30:00,
2013-04-30 01:40:00,34.3,20.2,29.58,SW,233,5.0,5.0,56,0.00,,,0.00,0,Wunderground v.1.15,2013-04-30 07:40:00,
2013-04-30 01:45:00,34.4,19.9,29.58,WSW,249,5.0,5.0,55,0.00,,,0.00,0,Wunderground v.1.15,2013-04-30 07:45:00,
2013-04-30 01:50:00,34.4,19.9,29.58,West,277,5.0,5.0,55,0.00,,,0.00,0,Wunderground v.1.15,2013-04-30 07:50:00,
2013-04-30 01:55:00,34.4,20.7,29.58,West,263,6.0,8.0,57,0.00,,,0.00,0,Wunderground v.1.15,2013-04-30 07:55:00,
2013-04-30 02:00:00,34.3,20.6,29.58,West,276,5.0,6.0,57,0.00,,,0.00,0,Wunderground v.1.15,2013-04-30 08:00:00,
2013-04-30 02:10:00,34.4,19.5,29.58,WSW,237,7.0,11.0,54,0.00,,,0.00,0,Wunderground v.1.15,2013-04-30 08:10:00,
2013-04-30 02:15:00,34.3,19.4,29.59,West,272,9.0,11.0,54,0.00,,,0.00,0,Wunderground v.1.15,2013-04-30 08:15:00,
2013-04-30 02:20:00,34.1,19.2,29.59,West,274,9.0,10.0,54,0.00,,,0.00,0,Wunderground v.1.15,2013-04-30 08:20:00,
2013-04-30 02:30:00,33.8,19.3,29.59,West,275,7.0,10.0,55,0.00,,,0.00,0,Wunderground v.1.15,2013-04-30 08:30:00,
2013-04-30 02:40:00,33.4,19.4,29.59,West,276,9.0,10.0,56,0.00,,,0.00,0,Wunderground v.1.15,2013-04-30 08:40:00,
2013-04-30 02:50:00,33.2,19.6,29.59,WNW,298,9.0,9.0,57,0.00,,,0.00,0,Wunderground v.1.15,2013-04-30 08:50:00,
2013-04-30 02:55:00,33.1,19.5,29.60,West,279,10.0,10.0,57,0.00,,,0.00,0,Wunderground v.1.15,2013-04-30 08:55:00,
2013-04-30 03:00:00,32.9,19.3,29.59,WNW,285,10.0,10.0,57,0.00,,,0.00,0,Wunderground v.1.15,2013-04-30 09:00:00,
2013-04-30 03:05:00,32.8,19.6,29.60,West,266,8.0,10.0,58,0.00,,,0.00,0,Wunderground v.1.15,2013-04-30 09:05:00,
2013-04-30 03:10:00,32.7,19.1,29.60,West,264,5.0,6.0,57,0.00,,,0.00,0,Wunderground v.1.15,2013-04-30 09:10:00,
2013-04-30 03:20:00,32.8,18.4,29.60,West,261,5.0,5.0,55,0.00,,,0.00,0,Wunderground v.1.15,2013-04-30 09:20:00,
2013-04-30 03:30:00,32.6,18.6,29.60,WNW,293,3.0,3.0,56,0.00,,,0.00,0,Wunderground v.1.15,2013-04-30 09:30:00,
2013-04-30 03:35:00,32.5,18.1,29.61,West,274,4.0,13.0,55,0.00,,,0.00,0,Wunderground v.1.15,2013-04-30 09:35:00,
2013-04-30 03:40:00,32.6,17.3,29.61,West,269,6.0,7.0,53,0.00,,,0.00,0,Wunderground v.1.15,2013-04-30 09:40:00,
2013-04-30 03:45:00,32.7,17.0,29.61,West,278,9.0,9.0,52,0.00,,,0.00,0,Wunderground v.1.15,2013-04-30 09:45:00,
2013-04-30 03:50:00,32.8,17.1,29.61,WNW,293,10.0,10.0,52,0.00,,,0.00,0,Wunderground v.1.15,2013-04-30 09:50:00,
2013-04-30 03:55:00,32.8,16.6,29.61,West,261,8.0,10.0,51,0.00,,,0.00,0,Wunderground v.1.15,2013-04-30 09:55:00,
2013-04-30 04:05:00,32.6,16.4,29.62,West,278,7.0,9.0,51,0.00,,,0.00,0,Wunderground v.1.15,2013-04-30 10:05:00,
2013-04-30 04:10:00,32.5,16.8,29.62,West,280,7.0,7.0,52,0.00,,,0.00,0,Wunderground v.1.15,2013-04-30 10:10:00,
2013-04-30 04:20:00,32.3,16.6,29.62,WNW,295,6.0,7.0,52,0.00,,,0.00,0,Wunderground v.1.15,2013-04-30 10:20:00,
2013-04-30 04:25:00,32.3,17.1,29.62,WNW,301,6.0,11.0,53,0.00,,,0.00,0,Wunderground v.1.15,2013-04-30 10:25:00,
2013-04-30 04:30:00,32.3,16.6,29.63,West,266,8.0,8.0,52,0.00,,,0.00,0,Wunderground v.1.15,2013-04-30 10:30:00,
2013-04-30 04:35:00,32.3,16.6,29.63,WNW,291,8.0,8.0,52,0.00,,,0.00,0,Wunderground v.1.15,2013-04-30 10:35:00,
2013-04-30 04:40:00,32.1,16.9,29.63,WNW,303,5.0,5.0,53,0.00,,,0.00,0,Wunderground v.1.15,2013-04-30 10:40:00,
2013-04-30 04:50:00,31.4,16.7,29.63,NW,316,3.0,3.0,54,0.00,,,0.00,0,Wunderground v.1.15,2013-04-30 10:50:00,
2013-04-30 04:55:00,31.2,16.5,29.64,NW,311,4.0,4.0,54,0.00,,,0.00,0,Wunderground v.1.15,2013-04-30 10:55:00,
2013-04-30 05:00:00,30.9,16.6,29.64,NW,306,2.0,2.0,55,0.00,,,0.00,0,Wunderground v.1.15,2013-04-30 11:00:00,
2013-04-30 05:10:00,30.4,17.0,29.65,WNW,300,3.0,7.0,57,0.00,,,0.00,0,Wunderground v.1.15,2013-04-30 11:10:00,
2013-04-30 05:15:00,30.0,17.0,29.65,WNW,293,4.0,7.0,58,0.00,,,0.00,0,Wunderground v.1.15,2013-04-30 11:15:00,
2013-04-30 05:20:00,29.8,17.2,29.65,WNW,303,4.0,5.0,59,0.00,,,0.00,0,Wunderground v.1.15,2013-04-30 11:20:00,
2013-04-30 05:25:00,29.6,17.0,29.65,WNW,303,4.0,5.0,59,0.00,,,0.00,0,Wunderground v.1.15,2013-04-30 11:25:00,
2013-04-30 05:30:00,29.6,17.4,29.65,WNW,301,4.0,4.0,60,0.00,,,0.00,0,Wunderground v.1.15,2013-04-30 11:30:00,
2013-04-30 05:35:00,29.8,16.8,29.66,NW,312,5.0,5.0,58,0.00,,,0.00,0,Wunderground v.1.15,2013-04-30 11:35:00,
2013-04-30 05:40:00,30.1,16.7,29.66,NW,316,4.0,5.0,57,0.00,,,0.00,0,Wunderground v.1.15,2013-04-30 11:40:00,
2013-04-30 05:45:00,30.4,16.1,29.66,WNW,283,4.0,5.0,55,0.00,,,0.00,0,Wunderground v.1.15,2013-04-30 11:45:00,
2013-04-30 05:55:00,30.5,16.2,29.66,NW,314,6.0,8.0,55,0.00,,,0.00,0,Wunderground v.1.15,2013-04-30 11:55:00,
2013-04-30 06:05:00,30.6,15.5,29.66,NW,316,6.0,8.0,53,0.00,,,0.00,0,Wunderground v.1.15,2013-04-30 12:05:00,
2013-04-30 06:10:00,30.7,15.6,29.67,West,278,7.0,7.0,53,0.00,,,0.00,7,Wunderground v.1.15,2013-04-30 12:10:00,
2013-04-30 06:15:00,30.7,15.6,29.67,West,279,6.0,8.0,53,0.00,,,0.00,16,Wunderground v.1.15,2013-04-30 12:15:00,
2013-04-30 06:20:00,30.6,15.9,29.67,WNW,299,6.0,8.0,54,0.00,,,0.00,25,Wunderground v.1.15,2013-04-30 12:20:00,
2013-04-30 06:25:00,30.6,16.3,29.67,NW,305,7.0,10.0,55,0.00,,,0.00,26,Wunderground v.1.15,2013-04-30 12:25:00,
2013-04-30 06:35:00,30.6,16.7,29.67,WNW,293,10.0,10.0,56,0.00,,,0.00,26,Wunderground v.1.15,2013-04-30 12:35:00,
2013-04-30 06:40:00,30.7,16.4,29.68,WNW,299,9.0,9.0,55,0.00,,,0.00,39,Wunderground v.1.15,2013-04-30 12:40:00,
2013-04-30 06:45:00,31.0,15.8,29.68,WNW,285,8.0,9.0,53,0.00,,,0.00,49,Wunderground v.1.15,2013-04-30 12:45:00,
2013-04-30 06:50:00,31.3,14.8,29.68,WNW,287,9.0,10.0,50,0.00,,,0.00,56,Wunderground v.1.15,2013-04-30 12:50:00,
2013-04-30 07:00:00,31.9,14.4,29.69,West,268,11.0,18.0,48,0.00,,,0.00,42,Wunderground v.1.15,2013-04-30 13:00:00,
2013-04-30 07:10:00,31.8,13.8,29.69,WSW,254,10.0,10.0,47,0.00,,,0.00,42,Wunderground v.1.15,2013-04-30 13:10:00,
2013-04-30 07:20:00,32.0,12.0,29.70,West,272,6.0,9.0,43,0.00,,,0.00,51,Wunderground v.1.15,2013-04-30 13:20:00,
2013-04-30 07:25:00,32.2,11.6,29.70,WSW,250,7.0,11.0,42,0.00,,,0.00,49,Wunderground v.1.15,2013-04-30 13:25:00,
2013-04-30 07:30:00,32.3,12.3,29.71,WSW,247,5.0,5.0,43,0.00,,,0.00,56,Wunderground v.1.15,2013-04-30 13:30:00,
2013-04-30 07:40:00,32.6,12.0,29.71,West,280,6.0,7.0,42,0.00,,,0.00,42,Wunderground v.1.15,2013-04-30 13:40:00,
2013-04-30 07:45:00,32.5,11.9,29.71,WNW,295,7.0,7.0,42,0.00,,,0.00,44,Wunderground v.1.15,2013-04-30 13:45:00,
2013-04-30 07:55:00,32.6,12.5,29.72,West,262,4.0,6.0,43,0.00,,,0.00,42,Wunderground v.1.15,2013-04-30 13:55:00,
2013-04-30 08:05:00,33.0,11.8,29.72,SW,218,5.0,6.0,41,0.00,,,0.00,44,Wunderground v.1.15,2013-04-30 14:05:00,
2013-04-30 08:10:00,33.1,11.9,29.72,West,262,6.0,7.0,41,0.00,,,0.00,44,Wunderground v.1.15,2013-04-30 14:10:00,
2013-04-30 08:20:00,33.1,10.8,29.72,WNW,300,9.0,9.0,39,0.00,,,0.00,60,Wunderground v.1.15,2013-04-30 14:20:00,
2013-04-30 08:25:00,33.3,12.1,29.73,SSE,153,10.0,10.0,41,0.00,,,0.00,418,Wunderground v.1.15,2013-04-30 14:25:00,
2013-04-30 08:30:00,33.4,11.1,29.73,WSW,243,7.0,8.0,39,0.00,,,0.00,408,Wunderground v.1.15,2013-04-30 14:30:00,
2013-04-30 08:35:00,33.4,10.5,29.73,West,268,5.0,8.0,38,0.00,,,0.00,436,Wunderground v.1.15,2013-04-30 14:35:00,
2013-04-30 08:40:00,33.6,10.7,29.73,West,263,7.0,9.0,38,0.00,,,0.00,462,Wunderground v.1.15,2013-04-30 14:40:00,
2013-04-30 08:50:00,33.7,10.1,29.73,West,262,7.0,10.0,37,0.00,,,0.00,503,Wunderground v.1.15,2013-04-30 14:50:00,
2013-04-30 08:55:00,34.1,11.7,29.73,West,281,8.0,13.0,39,0.00,,,0.00,446,Wunderground v.1.15,2013-04-30 14:55:00,
2013-04-30 09:05:00,34.1,10.5,29.73,West,276,12.0,18.0,37,0.00,,,0.00,462,Wunderground v.1.15,2013-04-30 15:05:00,
2013-04-30 09:10:00,34.0,9.8,29.74,WNW,289,14.0,14.0,36,0.00,,,0.00,564,Wunderground v.1.15,2013-04-30 15:10:00,
2013-04-30 09:15:00,34.1,10.5,29.74,West,266,9.0,17.0,37,0.00,,,0.00,575,Wunderground v.1.15,2013-04-30 15:15:00,
2013-04-30 09:20:00,34.2,10.6,29.73,West,265,9.0,9.0,37,0.00,,,0.00,598,Wunderground v.1.15,2013-04-30 15:20:00,
2013-04-30 09:25:00,34.4,11.4,29.73,WNW,303,8.0,9.0,38,0.00,,,0.00,619,Wunderground v.1.15,2013-04-30 15:25:00,
2013-04-30 09:35:00,35.5,11.1,29.73,WNW,283,5.0,12.0,36,0.00,,,0.00,661,Wunderground v.1.15,2013-04-30 15:35:00,
2013-04-30 09:40:00,35.4,11.1,29.73,WNW,287,5.0,5.0,36,0.00,,,0.00,661,Wunderground v.1.15,2013-04-30 15:40:00,
2013-04-30 09:50:00,35.9,13.9,29.73,SSW,198,4.0,4.0,40,0.00,,,0.00,707,Wunderground v.1.15,2013-04-30 15:50:00,
2013-04-30 09:55:00,36.3,11.9,29.73,West,278,3.0,4.0,36,0.00,,,0.00,733,Wunderground v.1.15,2013-04-30 15:55:00,
2013-04-30 10:05:00,35.5,10.5,29.73,West,276,9.0,15.0,35,0.00,,,0.00,171,Wunderground v.1.15,2013-04-30 16:05:00,
2013-04-30 10:10:00,35.2,10.9,29.73,West,281,12.0,15.0,36,0.00,,,0.00,183,Wunderground v.1.15,2013-04-30 16:10:00,
2013-04-30 10:15:00,35.3,11.0,29.73,West,274,13.0,15.0,36,0.00,,,0.00,759,Wunderground v.1.15,2013-04-30 16:15:00,
2013-04-30 10:20:00,35.7,12.5,29.73,South,180,10.0,10.0,38,0.00,,,0.00,782,Wunderground v.1.15,2013-04-30 16:20:00,
2013-04-30 10:25:00,36.1,11.7,29.73,SSW,194,10.0,10.0,36,0.00,,,0.00,805,Wunderground v.1.15,2013-04-30 16:25:00,
2013-04-30 10:30:00,36.0,9.6,29.74,South,185,11.0,11.0,33,0.00,,,0.00,780,Wunderground v.1.15,2013-04-30 16:30:00,
2013-04-30 10:35:00,36.0,8.9,29.73,SSE,158,10.0,11.0,32,0.00,,,0.00,824,Wunderground v.1.15,2013-04-30 16:35:00,
2013-04-30 10:45:00,37.4,10.2,29.74,ESE,122,6.0,10.0,32,0.00,,,0.00,868,Wunderground v.1.15,2013-04-30 16:45:00,
2013-04-30 10:55:00,38.4,10.3,29.74,SE,141,7.0,10.0,31,0.00,,,0.00,886,Wunderground v.1.15,2013-04-30 16:55:00,
2013-04-30 11:05:00,38.6,11.9,29.74,SE,129,4.0,8.0,33,0.00,,,0.00,972,Wunderground v.1.15,2013-04-30 17:05:00,
2013-04-30 11:15:00,38.6,8.2,29.75,West,277,8.0,11.0,28,0.00,,,0.00,269,Wunderground v.1.15,2013-04-30 17:15:00,
2013-04-30 11:20:00,37.9,8.4,29.75,West,262,9.0,9.0,29,0.00,,,0.00,921,Wunderground v.1.15,2013-04-30 17:20:00,
2013-04-30 11:25:00,37.5,8.1,29.75,SW,223,7.0,9.0,29,0.00,,,0.00,1055,Wunderground v.1.15,2013-04-30 17:25:00,
2013-04-30 11:35:00,38.9,11.5,29.75,West,267,4.0,8.0,32,0.00,,,0.00,292,Wunderground v.1.15,2013-04-30 17:35:00,
2013-04-30 11:40:00,38.7,10.6,29.75,West,280,7.0,14.0,31,0.00,,,0.00,1007,Wunderground v.1.15,2013-04-30 17:40:00,
2013-04-30 11:50:00,38.0,10.0,29.75,NW,308,12.0,12.0,31,0.00,,,0.00,1172,Wunderground v.1.15,2013-04-30 17:50:00,
2013-04-30 11:55:00,38.2,9.4,29.76,WNW,294,12.0,17.0,30,0.00,,,0.00,341,Wunderground v.1.15,2013-04-30 17:55:00,
2013-04-30 12:05:00,38.0,10.7,29.76,West,277,11.0,13.0,32,0.00,,,0.00,330,Wunderground v.1.15,2013-04-30 18:05:00,
2013-04-30 12:10:00,37.9,9.2,29.76,WNW,299,10.0,18.0,30,0.00,,,0.00,401,Wunderground v.1.15,2013-04-30 18:10:00,
2013-04-30 12:20:00,37.9,8.4,29.76,WNW,287,12.0,12.0,29,0.00,,,0.00,399,Wunderground v.1.15,2013-04-30 18:20:00,
2013-04-30 12:30:00,38.0,9.3,29.76,WNW,302,8.0,10.0,30,0.00,,,0.00,424,Wunderground v.1.15,2013-04-30 18:30:00,
2013-04-30 12:35:00,38.2,10.2,29.76,WNW,303,8.0,12.0,31,0.00,,,0.00,334,Wunderground v.1.15,2013-04-30 18:35:00,
2013-04-30 12:40:00,38.4,10.3,29.76,WNW,299,9.0,17.0,31,0.00,,,0.00,380,Wunderground v.1.15,2013-04-30 18:40:00,
2013-04-30 12:45:00,38.4,8.9,29.76,NW,306,10.0,17.0,29,0.00,,,0.00,374,Wunderground v.1.15,2013-04-30 18:45:00,
2013-04-30 12:50:00,38.3,8.8,29.76,WNW,299,11.0,15.0,29,0.00,,,0.00,359,Wunderground v.1.15,2013-04-30 18:50:00,
2013-04-30 12:55:00,38.3,9.5,29.76,NE,47,12.0,15.0,30,0.00,,,0.00,397,Wunderground v.1.15,2013-04-30 18:55:00,
2013-04-30 13:00:00,38.5,8.2,29.76,NW,317,13.0,13.0,28,0.00,,,0.00,348,Wunderground v.1.15,2013-04-30 19:00:00,
2013-04-30 13:05:00,38.4,7.3,29.77,NW,306,11.0,15.0,27,0.00,,,0.00,325,Wunderground v.1.15,2013-04-30 19:05:00,
2013-04-30 13:10:00,38.4,7.3,29.76,WNW,291,9.0,11.0,27,0.00,,,0.00,302,Wunderground v.1.15,2013-04-30 19:10:00,
2013-04-30 13:15:00,38.2,8.7,29.76,NW,323,7.0,11.0,29,0.00,,,0.00,323,Wunderground v.1.15,2013-04-30 19:15:00,
2013-04-30 13:20:00,38.3,8.8,29.77,West,279,5.0,13.0,29,0.00,,,0.00,341,Wunderground v.1.15,2013-04-30 19:20:00,
2013-04-30 13:30:00,38.2,8.7,29.77,WNW,300,10.0,10.0,29,0.00,,,0.00,322,Wunderground v.1.15,2013-04-30 19:30:00,
2013-04-30 13:35:00,38.2,10.2,29.77,WNW,283,11.0,15.0,31,0.00,,,0.00,390,Wunderground v.1.15,2013-04-30 19:35:00,
2013-04-30 13:45:00,37.7,11.8,29.77,SSE,158,11.0,25.0,34,0.00,,,0.00,348,Wunderground v.1.15,2013-04-30 19:45:00,
2013-04-30 13:50:00,38.1,10.8,29.77,SW,215,8.0,9.0,32,0.00,,,0.00,721,Wunderground v.1.15,2013-04-30 19:50:00,
2013-04-30 13:55:00,39.1,13.1,29.76,ESE,107,5.0,9.0,34,0.00,,,0.00,747,Wunderground v.1.15,2013-04-30 19:55:00,
2013-04-30 14:00:00,39.2,12.5,29.77,SE,135,5.0,5.0,33,0.00,,,0.00,420,Wunderground v.1.15,2013-04-30 20:00:00,
2013-04-30 14:10:00,39.1,12.4,29.78,WNW,297,5.0,7.0,33,0.00,,,0.00,367,Wunderground v.1.15,2013-04-30 20:10:00,
2013-04-30 14:15:00,39.0,11.6,29.78,NW,314,8.0,14.0,32,0.00,,,0.00,346,Wunderground v.1.15,2013-04-30 20:15:00,
2013-04-30 14:20:00,38.8,10.7,29.78,WNW,292,10.0,10.0,31,0.00,,,0.00,304,Wunderground v.1.15,2013-04-30 20:20:00,
2013-04-30 14:30:00,38.8,11.4,29.79,NW,305,5.0,8.0,32,0.00,,,0.00,323,Wunderground v.1.15,2013-04-30 20:30:00,
2013-04-30 14:35:00,38.9,11.5,29.79,SSE,164,7.0,8.0,32,0.00,,,0.00,297,Wunderground v.1.15,2013-04-30 20:35:00,
2013-04-30 14:40:00,38.8,11.4,29.79,WNW,287,8.0,12.0,32,0.00,,,0.00,294,Wunderground v.1.15,2013-04-30 20:40:00,
2013-04-30 14:45:00,38.8,12.1,29.80,NW,318,10.0,16.0,33,0.00,,,0.00,309,Wunderground v.1.15,2013-04-30 20:45:00,
2013-04-30 14:50:00,38.7,12.0,29.80,WNW,286,11.0,13.0,33,0.00,,,0.00,251,Wunderground v.1.15,2013-04-30 20:50:00,
2013-04-30 14:55:00,38.8,11.4,29.81,WNW,283,8.0,16.0,32,0.00,,,0.00,236,Wunderground v.1.15,2013-04-30 20:55:00,
2013-04-30 15:05:00,38.7,12.0,29.81,SSE,156,7.0,8.0,33,0.00,,,0.00,186,Wunderground v.1.15,2013-04-30 21:05:00,
2013-04-30 15:10:00,38.6,11.2,29.81,SE,135,4.0,4.0,32,0.00,,,0.00,156,Wunderground v.1.15,2013-04-30 21:10:00,
2013-04-30 15:15:00,38.3,14.3,29.83,West,261,4.0,4.0,37,0.00,,,0.00,125,Wunderground v.1.15,2013-04-30 21:15:00,
2013-04-30 15:25:00,37.0,18.6,29.84,East,96,5.0,6.0,47,0.00,,,0.00,77,Wunderground v.1.15,2013-04-30 21:25:00,
2013-04-30 15:35:00,35.7,19.8,29.85,ESE,104,3.0,3.0,52,0.00,,,0.00,67,Wunderground v.1.15,2013-04-30 21:35:00,
2013-04-30 15:45:00,35.5,20.0,29.87,ENE,59,3.0,3.0,53,0.00,,,0.00,72,Wunderground v.1.15,2013-04-30 21:45:00,
2013-04-30 15:50:00,35.3,20.3,29.87,NE,52,2.0,4.0,54,0.00,,,0.00,81,Wunderground v.1.15,2013-04-30 21:50:00,
2013-04-30 16:00:00,35.0,20.4,29.87,East,98,4.0,4.0,55,0.00,,,0.00,91,Wunderground v.1.15,2013-04-30 22:00:00,
2013-04-30 16:05:00,34.9,20.4,29.88,East,101,3.0,4.0,55,0.00,,,0.00,84,Wunderground v.1.15,2013-04-30 22:05:00,
2013-04-30 16:10:00,34.5,20.8,29.88,ESE,118,2.0,2.0,57,0.00,,,0.00,79,Wunderground v.1.15,2013-04-30 22:10:00,
2013-04-30 16:15:00,34.3,21.0,29.88,SW,235,2.0,5.0,58,0.00,,,0.00,77,Wunderground v.1.15,2013-04-30 22:15:00,
2013-04-30 16:20:00,34.0,20.8,29.89,West,268,4.0,4.0,58,0.00,,,0.00,84,Wunderground v.1.15,2013-04-30 22:20:00,
2013-04-30 16:25:00,33.7,21.7,29.89,SW,231,4.0,4.0,61,0.00,,,0.00,79,Wunderground v.1.15,2013-04-30 22:25:00,
2013-04-30 16:30:00,33.2,22.3,29.89,ESE,118,3.0,6.0,64,0.00,,,0.00,84,Wunderground v.1.15,2013-04-30 22:30:00,
2013-04-30 16:35:00,32.8,22.0,29.89,ESE,119,4.0,6.0,64,0.00,,,0.00,95,Wunderground v.1.15,2013-04-30 22:35:00,
2013-04-30 16:40:00,32.8,22.3,29.89,West,274,3.0,3.0,65,0.00,,,0.00,118,Wunderground v.1.15,2013-04-30 22:40:00,
2013-04-30 16:50:00,33.1,22.6,29.90,West,276,2.0,2.0,65,0.00,,,0.00,139,Wunderground v.1.15,2013-04-30 22:50:00,
2013-04-30 16:55:00,33.4,22.9,29.90,ESE,117,1.0,7.0,65,0.00,,,0.00,125,Wunderground v.1.15,2013-04-30 22:55:00,
2013-04-30 17:00:00,33.0,23.9,29.90,ESE,109,3.0,5.0,69,0.00,,,0.00,111,Wunderground v.1.15,2013-04-30 23:00:00,
2013-04-30 17:05:00,32.8,23.7,29.91,East,85,5.0,5.0,69,0.00,,,0.00,95,Wunderground v.1.15,2013-04-30 23:05:00,
2013-04-30 17:10:00,32.5,24.5,29.92,ENE,66,4.0,4.0,72,0.00,,,0.00,76,Wunderground v.1.15,2013-04-30 23:10:00,
2013-04-30 17:15:00,32.0,25.0,29.92,ENE,66,3.0,4.0,75,0.00,,,0.00,79,Wunderground v.1.15,2013-04-30 23:15:00,
2013-04-30 17:20:00,31.7,25.3,29.92,ENE,71,3.0,3.0,77,0.00,,,0.00,51,Wunderground v.1.15,2013-04-30 23:20:00,
2013-04-30 17:25:00,31.2,25.1,29.93,ENE,67,2.0,3.0,78,0.00,,,0.00,56,Wunderground v.1.15,2013-04-30 23:25:00,
2013-04-30 17:30:00,30.9,25.2,29.93,ENE,67,1.0,1.0,79,0.00,,,0.00,54,Wunderground v.1.15,2013-04-30 23:30:00,
2013-04-30 17:35:00,30.5,25.1,29.94,ENE,68,1.0,1.0,80,0.00,,,0.00,51,Wunderground v.1.15,2013-04-30 23:35:00,
2013-04-30 17:40:00,30.4,25.6,29.94,ENE,67,0.0,0.0,82,0.00,,,0.00,44,Wunderground v.1.15,2013-04-30 23:40:00,
2013-04-30 17:45:00,30.2,25.4,29.95,ENE,68,0.0,0.0,82,0.00,,,0.00,37,Wunderground v.1.15,2013-04-30 23:45:00,
2013-04-30 17:50:00,30.0,25.5,29.95,ENE,67,0.0,1.0,83,0.00,,,0.00,30,Wunderground v.1.15,2013-04-30 23:50:00,
2013-04-30 17:55:00,30.0,25.5,29.95,ENE,67,0.0,1.0,83,0.00,,,0.00,32,Wunderground v.1.15,2013-04-30 23:55:00,
2013-04-30 18:05:00,29.6,25.1,29.96,ENE,67,0.0,0.0,83,0.00,,,0.00,30,Wunderground v.1.15,2013-05-01 00:05:00,
2013-04-30 18:10:00,29.2,24.7,29.96,ENE,67,0.0,0.0,83,0.00,,,0.00,23,Wunderground v.1.15,2013-05-01 00:10:00,
2013-04-30 18:20:00,29.1,24.9,29.97,ENE,67,0.0,0.0,84,0.00,,,0.00,19,Wunderground v.1.15,2013-05-01 00:20:00,
2013-04-30 18:25:00,29.2,25.0,29.98,ENE,67,0.0,1.0,84,0.00,,,0.00,16,Wunderground v.1.15,2013-05-01 00:25:00,
2013-04-30 18:30:00,29.2,25.0,29.98,North,7,1.0,1.0,84,0.00,,,0.00,14,Wunderground v.1.15,2013-05-01 00:30:00,
2013-04-30 18:35:00,29.3,25.1,29.98,NNW,345,1.0,1.0,84,0.00,,,0.00,14,Wunderground v.1.15,2013-05-01 00:35:00,
2013-04-30 18:40:00,29.3,24.8,29.98,NNW,337,1.0,1.0,83,0.00,,,0.00,12,Wunderground v.1.15,2013-05-01 00:40:00,
2013-04-30 18:50:00,29.3,24.8,29.99,NNW,337,0.0,0.0,83,0.00,,,0.01,12,Wunderground v.1.15,2013-05-01 00:50:00,
2013-04-30 18:55:00,29.3,24.8,29.99,NNW,337,1.0,1.0,83,0.12,,,0.02,12,Wunderground v.1.15,2013-05-01 00:55:00,
2013-04-30 19:00:00,29.4,24.9,29.99,NNW,337,1.0,1.0,83,0.19,,,0.03,12,Wunderground v.1.15,2013-05-01 01:00:00,
2013-04-30 19:10:00,29.3,24.8,30.00,NNW,337,1.0,1.0,83,0.11,,,0.05,9,Wunderground v.1.15,2013-05-01 01:10:00,
2013-04-30 19:20:00,29.3,24.8,30.00,NNW,337,1.0,1.0,83,0.05,,,0.05,7,Wunderground v.1.15,2013-05-01 01:20:00,
2013-04-30 19:25:00,29.4,24.9,30.00,NNW,337,1.0,1.0,83,0.04,,,0.06,5,Wunderground v.1.15,2013-05-01 01:25:00,
2013-04-30 19:35:00,29.5,25.0,30.01,NNW,337,0.0,0.0,83,0.04,,,0.06,5,Wunderground v.1.15,2013-05-01 01:35:00,
2013-04-30 19:40:00,29.5,24.7,30.01,NNW,337,0.0,0.0,82,0.00,,,0.06,5,Wunderground v.1.15,2013-05-01 01:40:00,
2013-04-30 19:45:00,29.5,24.7,30.01,NNW,337,0.0,0.0,82,0.00,,,0.07,5,Wunderground v.1.15,2013-05-01 01:45:00,
2013-04-30 19:50:00,29.5,25.0,30.02,NNW,337,0.0,0.0,83,0.00,,,0.07,5,Wunderground v.1.15,2013-05-01 01:50:00,
2013-04-30 19:55:00,29.6,25.1,30.02,NNW,337,0.0,0.0,83,0.00,,,0.07,0,Wunderground v.1.15,2013-05-01 01:55:00,
2013-04-30 20:00:00,29.6,25.1,30.03,NNW,337,0.0,0.0,83,0.00,,,0.07,0,Wunderground v.1.15,2013-05-01 02:00:00,
2013-04-30 20:10:00,29.6,25.4,30.03,NNW,337,0.0,0.0,84,0.00,,,0.08,0,Wunderground v.1.15,2013-05-01 02:10:00,
2013-04-30 20:20:00,29.2,24.4,30.04,NNW,334,0.0,1.0,82,0.00,,,0.08,0,Wunderground v.1.15,2013-05-01 02:20:00,
2013-04-30 20:30:00,28.8,24.0,30.05,NNW,331,0.0,0.0,82,0.00,,,0.08,0,Wunderground v.1.15,2013-05-01 02:30:00,
2013-04-30 20:40:00,28.7,23.9,30.05,NNW,331,0.0,0.0,82,0.00,,,0.09,0,Wunderground v.1.15,2013-05-01 02:40:00,
2013-04-30 20:45:00,28.7,23.9,30.05,NNW,331,0.0,0.0,82,0.00,,,0.09,0,Wunderground v.1.15,2013-05-01 02:45:00,
2013-04-30 20:55:00,28.5,24.3,30.06,NNW,331,0.0,0.0,84,0.00,,,0.09,0,Wunderground v.1.15,2013-05-01 02:55:00,
2013-04-30 21:00:00,28.4,24.2,30.07,NNW,331,0.0,0.0,84,0.00,,,0.10,0,Wunderground v.1.15,2013-05-01 03:00:00,
2013-04-30 21:05:00,28.3,24.4,30.07,NNW,331,0.0,0.0,85,0.00,,,0.10,0,Wunderground v.1.15,2013-05-01 03:05:00,
2013-04-30 21:10:00,28.3,24.4,30.07,NNW,331,0.0,0.0,85,0.00,,,0.10,0,Wunderground v.1.15,2013-05-01 03:10:00,
2013-04-30 21:15:00,28.3,24.4,30.08,NNW,331,0.0,0.0,85,0.00,,,0.10,0,Wunderground v.1.15,2013-05-01 03:15:00,
2013-04-30 21:25:00,28.2,24.6,30.08,NNW,331,0.0,0.0,86,0.00,,,0.11,0,Wunderground v.1.15,2013-05-01 03:25:00,
2013-04-30 21:30:00,28.1,24.5,30.09,NNW,331,0.0,0.0,86,0.06,,,0.12,0,Wunderground v.1.15,2013-05-01 03:30:00,
2013-04-30 21:35:00,28.1,24.5,30.09,NNW,331,0.0,0.0,86,0.12,,,0.13,0,Wunderground v.1.15,2013-05-01 03:35:00,
2013-04-30 21:45:00,28.1,24.5,30.09,NNW,331,0.0,0.0,86,0.13,,,0.15,0,Wunderground v.1.15,2013-05-01 03:45:00,
2013-04-30 21:50:00,28.1,24.5,30.09,NNW,331,0.0,0.0,86,0.09,,,0.16,0,Wunderground v.1.15,2013-05-01 03:50:00,
2013-04-30 21:55:00,28.0,24.4,30.10,NNW,331,0.0,0.0,86,0.13,,,0.17,0,Wunderground v.1.15,2013-05-01 03:55:00,
2013-04-30 22:00:00,28.0,24.4,30.10,NNW,331,0.0,0.0,86,0.09,,,0.17,0,Wunderground v.1.15,2013-05-01 04:00:00,
2013-04-30 22:05:00,27.9,24.3,30.10,NNW,331,0.0,0.0,86,0.07,,,0.18,0,Wunderground v.1.15,2013-05-01 04:05:00,
2013-04-30 22:15:00,27.9,24.3,30.10,NNW,331,0.0,0.0,86,0.08,,,0.20,0,Wunderground v.1.15,2013-05-01 04:15:00,
2013-04-30 22:20:00,27.8,24.2,30.10,NNW,331,0.0,0.0,86,0.08,,,0.20,0,Wunderground v.1.15,2013-05-01 04:20:00,
2013-04-30 22:25:00,27.8,24.2,30.11,NNW,331,0.0,0.0,86,0.08,,,0.21,0,Wunderground v.1.15,2013-05-01 04:25:00,
2013-04-30 22:35:00,27.8,24.4,30.11,NNW,331,0.0,0.0,87,0.05,,,0.22,0,Wunderground v.1.15,2013-05-01 04:35:00,
2013-04-30 22:40:00,27.8,24.4,30.11,NNW,331,0.0,0.0,87,0.09,,,0.23,0,Wunderground v.1.15,2013-05-01 04:40:00,
2013-04-30 22:50:00,27.4,24.0,30.12,NNW,331,0.0,0.0,87,0.08,,,0.24,0,Wunderground v.1.15,2013-05-01 04:50:00,
2013-04-30 22:55:00,27.2,23.8,30.12,NNW,331,0.0,0.0,87,0.13,,,0.25,0,Wunderground v.1.15,2013-05-01 04:55:00,
2013-04-30 23:05:00,26.7,23.4,30.13,North,354,0.0,1.0,87,0.08,,,0.26,0,Wunderground v.1.15,2013-05-01 05:05:00,
2013-04-30 23:10:00,26.5,23.2,30.13,North,351,0.0,0.0,87,0.06,,,0.26,0,Wunderground v.1.15,2013-05-01 05:10:00,
2013-04-30 23:15:00,26.4,23.1,30.13,North,350,0.0,0.0,87,0.06,,,0.27,0,Wunderground v.1.15,2013-05-01 05:15:00,
2013-04-30 23:20:00,26.3,23.0,30.13,North,349,0.0,0.0,87,0.06,,,0.27,0,Wunderground v.1.15,2013-05-01 05:20:00,
2013-04-30 23:30:00,26.1,22.8,30.14,North,349,0.0,0.0,87,0.00,,,0.27,0,Wunderground v.1.15,2013-05-01 05:30:00,
2013-04-30 23:40:00,26.1,22.8,30.14,North,349,0.0,1.0,87,0.00,,,0.28,0,Wunderground v.1.15,2013-05-01 05:40:00,
2013-04-30 23:45:00,26.1,22.8,30.14,North,349,0.0,1.0,87,0.00,,,0.28,0,Wunderground v.1.15,2013-05-01 05:45:00,
2013-04-30 23:50:00,26.1,22.8,30.14,North,349,0.0,0.0,87,0.04,,,0.29,0,Wunderground v.1.15,2013-05-01 05:50:00,
2013-04-30 23:55:00,26.1,22.8,30.15,North,349,0.0,0.0,87,0.04,,,0.29,0,Wunderground v.1.15,2013-05-01 05:55:00,